createdAt,value
2019-04-21T00:00:44.694Z,24.35
2019-04-21T00:03:25.634Z,24.34
2019-04-21T00:06:09.477Z,24.35
2019-04-21T00:08:50.884Z,24.30
2019-04-21T00:11:30.859Z,24.29
2019-04-21T00:13:52.605Z,24.32
2019-04-21T00:16:29.066Z,24.36
2019-04-21T00:19:19.641Z,24.37
2019-04-21T00:21:58.115Z,24.38
2019-04-21T00:24:41.365Z,24.39
2019-04-21T00:27:22.955Z,24.44
2019-04-21T00:29:58.148Z,24.42
2019-04-21T00:32:28.160Z,24.47
2019-04-21T00:35:00.383Z,24.46
2019-04-21T00:37:48.070Z,24.38
2019-04-21T00:40:24.005Z,24.30
2019-04-21T00:43:01.327Z,24.29
2019-04-21T00:45:31.367Z,24.33
2019-04-21T00:48:16.620Z,24.31
2019-04-21T00:51:05.471Z,24.32
2019-04-21T00:53:37.130Z,24.31
2019-04-21T00:56:11.910Z,24.33
2019-04-21T00:58:47.755Z,24.31
2019-04-21T01:01:14.950Z,24.30
2019-04-21T01:03:58.114Z,24.33
2019-04-21T01:06:35.183Z,24.29
2019-04-21T01:09:06.375Z,24.19
2019-04-21T01:11:44.466Z,24.20
2019-04-21T01:14:29.804Z,24.22
2019-04-21T01:16:57.727Z,24.24
2019-04-21T01:19:25.133Z,24.23
2019-04-21T01:21:47.490Z,24.24
2019-04-21T01:24:28.909Z,24.27
2019-04-21T01:27:06.452Z,24.27
2019-04-21T01:29:55.094Z,24.23
2019-04-21T01:32:29.566Z,24.23
2019-04-21T01:35:08.577Z,24.23
2019-04-21T01:37:52.437Z,24.19
2019-04-21T01:40:22.878Z,24.13
2019-04-21T01:43:01.134Z,24.15
2019-04-21T01:45:26.726Z,24.18
2019-04-21T01:48:03.563Z,24.19
2019-04-21T01:50:41.196Z,24.21
2019-04-21T01:53:30.683Z,24.21
2019-04-21T01:56:09.385Z,24.20
2019-04-21T01:58:38.050Z,24.23
2019-04-21T02:01:19.355Z,24.20
2019-04-21T02:03:55.874Z,24.22
2019-04-21T02:06:33.457Z,24.21
2019-04-21T02:09:10.120Z,24.14
2019-04-21T02:11:52.050Z,24.53
2019-04-21T02:14:31.772Z,24.64
2019-04-21T02:16:59.595Z,24.42
2019-04-21T02:19:31.238Z,24.34
2019-04-21T02:22:04.911Z,24.31
2019-04-21T02:25:08.281Z,24.25
2019-04-21T02:27:26.514Z,24.21
2019-04-21T02:30:00.052Z,24.20
2019-04-21T02:32:53.815Z,24.20
2019-04-21T02:35:30.295Z,24.17
2019-04-21T02:38:03.786Z,24.16
2019-04-21T02:40:38.935Z,24.17
2019-04-21T02:43:11.341Z,24.15
2019-04-21T02:45:53.698Z,24.06
2019-04-21T02:50:57.713Z,24.08
2019-04-21T02:54:07.376Z,24.11
2019-04-21T02:56:17.995Z,24.09
2019-04-21T03:01:50.332Z,24.21
2019-04-21T03:04:43.096Z,24.68
2019-04-21T03:07:21.610Z,25.01
2019-04-21T03:09:59.755Z,25.25
2019-04-21T03:12:35.533Z,25.40
2019-04-21T03:15:25.522Z,25.51
2019-04-21T03:18:38.045Z,25.57
2019-04-21T03:23:07.697Z,25.69
2019-04-21T03:28:14.173Z,25.78
2019-04-21T03:41:21.457Z,26.00
2019-04-21T03:43:50.160Z,26.05
2019-04-21T03:49:11.857Z,26.12
2019-04-21T03:54:15.530Z,26.20
2019-04-21T03:59:25.013Z,26.22
2019-04-21T04:02:47.172Z,26.27
2019-04-21T04:05:20.006Z,26.27
2019-04-21T04:08:08.735Z,26.30
2019-04-21T04:10:34.840Z,26.29
2019-04-21T04:13:14.121Z,26.32
2019-04-21T04:18:44.421Z,26.35
2019-04-21T04:21:05.794Z,26.34
2019-04-21T04:24:02.399Z,26.36
2019-04-21T04:26:19.371Z,26.38
2019-04-21T04:31:35.486Z,26.40
2019-04-21T04:34:04.768Z,26.43
2019-04-21T04:39:43.154Z,26.45
2019-04-21T04:42:35.054Z,26.37
2019-04-21T04:47:37.110Z,26.49
2019-04-21T04:50:09.930Z,26.55
2019-04-21T04:52:48.982Z,26.54
2019-04-21T04:55:26.189Z,26.51
2019-04-21T05:00:43.422Z,26.78
2019-04-21T05:06:46.170Z,26.83
2019-04-21T05:09:21.558Z,26.83
2019-04-21T05:11:48.752Z,26.99
2019-04-21T05:14:21.803Z,26.95
2019-04-21T05:17:02.306Z,26.93
2019-04-21T05:19:38.160Z,26.91
2019-04-21T05:22:11.054Z,26.86
2019-04-21T05:24:36.107Z,27.04
2019-04-21T05:27:29.415Z,27.02
2019-04-21T05:30:17.375Z,27.00
2019-04-21T05:33:05.606Z,26.98
2019-04-21T05:36:04.106Z,26.95
2019-04-21T05:38:53.469Z,26.99
2019-04-21T05:41:20.657Z,26.93
2019-04-21T05:44:12.827Z,26.97
2019-04-21T05:46:49.508Z,27.09
2019-04-21T05:49:42.084Z,27.17
2019-04-21T05:52:08.101Z,27.24
2019-04-21T05:54:57.437Z,27.27
2019-04-21T05:57:31.846Z,27.31
2019-04-21T06:00:08.854Z,27.34
2019-04-21T06:02:43.788Z,27.36
2019-04-21T06:08:03.758Z,27.37
2019-04-21T06:10:42.273Z,27.39
2019-04-21T06:13:24.417Z,27.37
2019-04-21T06:18:35.355Z,27.27
2019-04-21T06:21:07.206Z,27.16
2019-04-21T06:23:36.779Z,27.06
2019-04-21T06:26:27.996Z,27.11
2019-04-21T06:28:50.404Z,27.10
2019-04-21T06:31:57.398Z,27.13
2019-04-21T06:34:06.757Z,27.16
2019-04-21T06:36:52.702Z,27.14
2019-04-21T06:39:24.154Z,27.16
2019-04-21T06:41:53.110Z,27.13
2019-04-21T06:44:33.064Z,27.12
2019-04-21T06:47:23.230Z,27.20
2019-04-21T06:49:44.392Z,27.22
2019-04-21T06:52:34.791Z,27.27
2019-04-21T06:55:03.145Z,27.36
2019-04-21T06:57:34.775Z,27.41
2019-04-21T07:00:07.407Z,27.37
2019-04-21T07:03:08.349Z,27.48
2019-04-21T07:05:26.336Z,27.54
2019-04-21T07:08:14.921Z,27.59
2019-04-21T07:10:31.819Z,27.68
2019-04-21T07:13:07.933Z,27.63
2019-04-21T07:16:02.838Z,27.69
2019-04-21T07:18:31.431Z,27.68
2019-04-21T07:21:00.054Z,27.64
2019-04-21T07:23:39.971Z,27.66
2019-04-21T07:26:14.763Z,27.64
2019-04-21T07:28:49.882Z,27.52
2019-04-21T07:31:24.962Z,27.48
2019-04-21T07:34:01.577Z,27.50
2019-04-21T07:39:06.219Z,27.48
2019-04-21T07:41:44.050Z,27.52
2019-04-21T07:44:17.027Z,27.48
2019-04-21T07:46:50.519Z,27.52
2019-04-21T07:49:57.371Z,27.56
2019-04-21T07:52:53.207Z,27.66
2019-04-21T07:57:57.196Z,27.88
2019-04-21T08:00:45.083Z,27.94
2019-04-21T08:03:14.137Z,27.92
2019-04-21T08:05:53.723Z,27.87
2019-04-21T08:08:26.566Z,27.88
2019-04-21T08:11:03.710Z,27.88
2019-04-21T08:13:42.975Z,27.92
2019-04-21T08:16:17.253Z,27.88
2019-04-21T08:18:52.421Z,27.90
2019-04-21T08:21:28.291Z,27.88
2019-04-21T08:23:59.682Z,27.92
2019-04-21T08:26:45.200Z,27.97
2019-04-21T08:29:25.839Z,27.98
2019-04-21T08:32:08.084Z,27.99
2019-04-21T08:37:08.902Z,28.04
2019-04-21T08:39:51.798Z,27.93
2019-04-21T08:42:21.608Z,27.93
2019-04-21T08:44:52.445Z,27.94
2019-04-21T08:47:25.650Z,27.95
2019-04-21T08:50:02.157Z,27.96
2019-04-21T08:52:44.479Z,27.93
2019-04-21T08:55:25.362Z,27.92
2019-04-21T08:58:25.668Z,28.16
2019-04-21T09:01:01.801Z,28.09
2019-04-21T09:03:51.956Z,28.07
2019-04-21T09:06:50.045Z,28.12
2019-04-21T09:09:03.660Z,28.15
2019-04-21T09:11:40.440Z,28.13
2019-04-21T09:14:20.766Z,28.18
2019-04-21T09:16:52.837Z,28.20
2019-04-21T09:19:38.626Z,28.23
2019-04-21T09:22:05.745Z,28.24
2019-04-21T09:24:42.708Z,28.32
2019-04-21T09:27:15.295Z,28.31
2019-04-21T09:29:40.623Z,28.34
2019-04-21T09:32:16.621Z,28.39
2019-04-21T09:34:48.934Z,28.37
2019-04-21T09:37:32.985Z,28.40
2019-04-21T09:40:00.908Z,28.38
2019-04-21T09:42:44.365Z,28.41
2019-04-21T09:45:14.291Z,28.44
2019-04-21T09:47:59.064Z,28.43
2019-04-21T09:50:24.646Z,28.42
2019-04-21T09:53:10.457Z,28.44
2019-04-21T09:55:45.246Z,28.44
2019-04-21T09:58:23.219Z,28.55
2019-04-21T10:01:01.478Z,28.58
2019-04-21T10:03:24.227Z,28.55
2019-04-21T10:05:58.759Z,28.57
2019-04-21T10:08:34.181Z,28.60
2019-04-21T10:11:09.865Z,28.59
2019-04-21T10:13:44.330Z,28.57
2019-04-21T10:16:38.272Z,28.60
2019-04-21T10:19:13.327Z,28.68
2019-04-21T10:21:50.148Z,28.65
2019-04-21T10:24:24.569Z,28.60
2019-04-21T10:26:59.062Z,28.14
2019-04-21T10:29:35.789Z,27.32
2019-04-21T10:32:09.360Z,26.84
2019-04-21T10:34:43.710Z,26.48
2019-04-21T10:37:18.800Z,26.31
2019-04-21T10:39:53.859Z,26.08
2019-04-21T10:42:29.108Z,25.46
2019-04-21T10:45:03.605Z,25.00
2019-04-21T10:47:38.859Z,24.82
2019-04-21T10:50:13.488Z,24.81
2019-04-21T10:53:09.292Z,24.85
2019-04-21T10:55:56.690Z,24.94
2019-04-21T10:58:38.382Z,25.07
2019-04-21T11:01:16.675Z,25.12
2019-04-21T11:04:29.019Z,25.19
2019-04-21T11:07:06.673Z,25.29
2019-04-21T11:09:34.155Z,25.91
2019-04-21T11:12:08.540Z,26.03
2019-04-21T11:14:43.092Z,26.14
2019-04-21T11:17:18.217Z,26.09
2019-04-21T11:19:54.861Z,26.08
2019-04-21T11:22:31.026Z,25.99
2019-04-21T11:25:07.004Z,26.02
2019-04-21T11:27:42.923Z,26.09
2019-04-21T11:30:17.807Z,26.05
2019-04-21T11:32:53.116Z,26.08
2019-04-21T11:35:27.780Z,26.10
2019-04-21T11:38:14.493Z,26.11
2019-04-21T11:40:45.541Z,26.09
2019-04-21T11:43:19.978Z,26.11
2019-04-21T11:45:54.754Z,26.09
2019-04-21T11:48:30.532Z,26.07
2019-04-21T11:51:04.925Z,26.06
2019-04-21T11:53:39.195Z,26.13
2019-04-21T11:56:14.625Z,26.10
2019-04-21T11:58:49.955Z,26.17
2019-04-21T12:01:25.685Z,26.11
2019-04-21T12:04:00.023Z,26.05
2019-04-21T12:06:40.935Z,26.13
2019-04-21T12:09:11.771Z,26.14
2019-04-21T12:11:47.412Z,26.18
2019-04-21T12:14:21.798Z,26.19
2019-04-21T12:16:57.186Z,26.25
2019-04-21T12:19:32.589Z,26.17
2019-04-21T12:22:17.560Z,26.07
2019-04-21T12:24:44.897Z,26.05
2019-04-21T12:27:20.355Z,26.15
2019-04-21T12:29:55.512Z,26.11
2019-04-21T12:32:40.182Z,26.12
2019-04-21T12:35:15.756Z,26.10
2019-04-21T12:37:51.073Z,26.07
2019-04-21T12:40:26.411Z,26.14
2019-04-21T12:43:00.944Z,26.12
2019-04-21T12:45:35.904Z,26.13
2019-04-21T12:48:10.557Z,26.10
2019-04-21T12:50:45.797Z,26.19
2019-04-21T12:53:21.435Z,26.22
2019-04-21T12:55:55.797Z,26.25
2019-04-21T12:58:31.127Z,26.17
2019-04-21T13:01:05.366Z,26.24
2019-04-21T13:03:39.833Z,26.19
2019-04-21T13:06:14.161Z,26.16
2019-04-21T13:08:56.863Z,26.20
2019-04-21T13:11:25.514Z,26.18
2019-04-21T13:13:59.888Z,26.97
2019-04-21T13:16:35.557Z,27.18
2019-04-21T13:19:09.608Z,27.11
2019-04-21T13:21:43.776Z,26.88
2019-04-21T13:24:17.918Z,26.57
2019-04-21T13:26:58.097Z,26.33
2019-04-21T13:29:30.184Z,26.35
2019-04-21T13:32:05.491Z,27.01
2019-04-21T13:34:42.095Z,27.30
2019-04-21T13:37:17.332Z,27.50
2019-04-21T13:40:34.157Z,27.64
2019-04-21T13:42:58.590Z,27.88
2019-04-21T13:45:32.167Z,27.97
2019-04-21T13:48:06.622Z,28.06
2019-04-21T13:50:41.433Z,28.13
2019-04-21T13:53:16.639Z,28.15
2019-04-21T13:55:52.618Z,28.20
2019-04-21T13:58:28.168Z,28.24
2019-04-21T14:01:03.541Z,28.27
2019-04-21T14:03:37.913Z,28.40
2019-04-21T14:06:12.166Z,28.49
2019-04-21T14:08:54.720Z,28.56
2019-04-21T14:11:29.263Z,28.51
2019-04-21T14:14:03.252Z,28.50
2019-04-21T14:16:38.182Z,28.46
2019-04-21T14:19:13.139Z,28.44
2019-04-21T14:21:49.880Z,28.41
2019-04-21T14:24:22.968Z,28.40
2019-04-21T14:26:58.324Z,28.38
2019-04-21T14:29:33.472Z,28.37
2019-04-21T14:32:08.374Z,28.37
2019-04-21T14:34:44.095Z,28.39
2019-04-21T14:37:20.459Z,28.39
2019-04-21T14:40:01.877Z,28.41
2019-04-21T14:42:32.012Z,28.40
2019-04-21T14:45:07.329Z,28.43
2019-04-21T14:48:04.995Z,28.43
2019-04-21T14:51:11.218Z,28.44
2019-04-21T14:54:02.010Z,28.45
2019-04-21T14:56:37.481Z,28.46
2019-04-21T14:59:12.948Z,28.47
2019-04-21T15:01:47.208Z,28.48
2019-04-21T15:04:22.379Z,28.50
2019-04-21T15:06:57.400Z,28.51
2019-04-21T15:09:32.309Z,28.51
2019-04-21T15:12:08.005Z,28.52
2019-04-21T15:14:42.553Z,28.54
2019-04-21T15:17:19.530Z,28.55
2019-04-21T15:20:00.721Z,28.57
2019-04-21T15:22:30.339Z,28.57
2019-04-21T15:25:05.860Z,28.90
2019-04-21T15:27:41.137Z,28.99
2019-04-21T15:30:16.465Z,29.02
2019-04-21T15:32:50.918Z,29.05
2019-04-21T15:35:26.962Z,29.06
2019-04-21T15:38:02.069Z,29.06
2019-04-21T15:40:44.636Z,29.08
2019-04-21T15:43:12.645Z,29.09
2019-04-21T15:45:46.964Z,29.10
2019-04-21T15:48:22.326Z,29.10
2019-04-21T15:50:58.871Z,29.13
2019-04-21T15:53:34.200Z,29.15
2019-04-21T15:56:28.872Z,29.14
2019-04-21T15:59:30.587Z,29.16
2019-04-21T16:02:22.361Z,29.20
2019-04-21T16:04:56.831Z,29.21
2019-04-21T16:07:31.892Z,29.21
2019-04-21T16:10:09.887Z,29.24
2019-04-21T16:12:43.638Z,29.23
2019-04-21T16:15:18.850Z,29.23
2019-04-21T16:17:53.358Z,29.26
2019-04-21T16:20:28.171Z,29.25
2019-04-21T16:23:02.428Z,29.30
2019-04-21T16:25:36.997Z,29.30
2019-04-21T16:28:11.483Z,29.32
2019-04-21T16:30:46.580Z,29.31
2019-04-21T16:33:21.090Z,29.32
2019-04-21T16:35:56.008Z,29.33
2019-04-21T16:38:31.424Z,29.36
2019-04-21T16:41:09.197Z,29.33
2019-04-21T16:43:43.013Z,29.40
2019-04-21T16:46:17.877Z,29.39
2019-04-21T16:48:53.478Z,29.40
2019-04-21T16:51:28.471Z,29.40
2019-04-21T16:54:08.330Z,29.42
2019-04-21T16:56:52.118Z,29.47
2019-04-21T16:59:32.566Z,29.52
2019-04-21T17:02:07.115Z,29.52
2019-04-21T17:04:42.511Z,29.54
2019-04-21T17:07:17.929Z,29.41
2019-04-21T17:09:52.718Z,28.40
2019-04-21T17:12:28.751Z,27.09
2019-04-21T17:15:18.941Z,26.28
2019-04-21T17:18:00.214Z,25.73
2019-04-21T17:20:29.944Z,25.34
2019-04-21T17:22:51.506Z,25.14
2019-04-21T17:25:27.833Z,25.05
2019-04-21T17:28:01.944Z,25.01
2019-04-21T17:30:36.701Z,25.01
2019-04-21T17:33:16.041Z,24.99
2019-04-21T17:35:47.327Z,24.98
2019-04-21T17:38:21.885Z,25.22
2019-04-21T17:41:11.052Z,24.98
2019-04-21T17:43:32.265Z,24.83
2019-04-21T17:46:06.916Z,24.70
2019-04-21T17:48:42.871Z,24.59
2019-04-21T17:51:25.822Z,24.48
2019-04-21T17:54:13.652Z,24.31
2019-04-21T17:57:05.550Z,24.18
2019-04-21T17:59:50.881Z,24.11
2019-04-21T18:02:11.040Z,24.07
2019-04-21T18:04:49.261Z,24.04
2019-04-21T18:07:31.543Z,23.99
2019-04-21T18:10:15.939Z,24.00
2019-04-21T18:12:36.160Z,24.00
2019-04-21T18:15:17.583Z,23.97
2019-04-21T18:17:34.551Z,23.95
2019-04-21T18:20:10.031Z,23.89
2019-04-21T18:23:15.356Z,23.92
2019-04-21T18:25:53.949Z,23.97
2019-04-21T18:28:20.775Z,24.33
2019-04-21T18:31:16.425Z,24.31
2019-04-21T18:34:13.876Z,24.06
2019-04-21T18:36:52.142Z,23.92
2019-04-21T18:39:53.619Z,23.93
2019-04-21T18:42:42.134Z,23.84
2019-04-21T18:45:48.027Z,23.95
2019-04-21T18:48:41.208Z,23.96
2019-04-21T18:51:32.722Z,24.45
2019-04-21T18:54:31.349Z,24.73
2019-04-21T18:56:53.618Z,24.83
2019-04-21T18:59:27.069Z,24.88
2019-04-21T19:02:02.447Z,24.91
2019-04-21T19:04:35.190Z,24.86
2019-04-21T19:07:19.863Z,24.41
2019-04-21T19:10:20.510Z,24.22
2019-04-21T19:13:05.986Z,24.18
2019-04-21T19:15:17.847Z,24.12
2019-04-21T19:18:16.999Z,24.08
2019-04-21T19:20:31.105Z,24.06
2019-04-21T19:23:00.310Z,24.06
2019-04-21T19:25:45.130Z,24.27
2019-04-21T19:28:16.282Z,24.39
2019-04-21T19:30:57.507Z,24.39
2019-04-21T19:33:27.026Z,24.47
2019-04-21T19:35:47.486Z,24.55
2019-04-21T19:38:31.719Z,24.51
2019-04-21T19:41:15.608Z,24.48
2019-04-21T19:43:53.670Z,24.48
2019-04-21T19:46:30.649Z,24.54
2019-04-21T19:49:13.470Z,24.98
2019-04-21T19:51:37.772Z,24.66
2019-04-21T19:54:12.627Z,24.23
2019-04-21T19:56:38.498Z,24.03
2019-04-21T19:59:18.572Z,23.91
2019-04-21T20:01:49.958Z,23.90
2019-04-21T20:04:34.387Z,23.95
2019-04-21T20:07:17.396Z,24.04
2019-04-21T20:09:55.899Z,24.09
2019-04-21T20:12:36.585Z,24.13
2019-04-21T20:15:23.248Z,24.17
2019-04-21T20:17:42.441Z,24.14
2019-04-21T20:20:03.746Z,24.46
2019-04-21T20:22:42.278Z,24.51
2019-04-21T20:25:19.061Z,24.34
2019-04-21T20:27:59.069Z,24.09
2019-04-21T20:30:42.474Z,24.01
2019-04-21T20:33:41.629Z,24.05
2019-04-21T20:38:28.870Z,24.06
2019-04-21T20:40:59.794Z,24.06
2019-04-21T20:43:47.156Z,24.05
2019-04-21T20:46:15.619Z,24.08
2019-04-21T20:48:52.320Z,24.05
2019-04-21T20:51:36.243Z,24.07
2019-04-21T20:54:07.449Z,24.08
2019-04-21T20:56:42.020Z,24.02
2019-04-21T20:59:19.418Z,23.93
2019-04-21T21:01:57.911Z,23.98
2019-04-21T21:04:27.987Z,24.07
2019-04-21T21:07:25.556Z,24.13
2019-04-21T21:09:54.506Z,24.42
2019-04-21T21:12:34.314Z,24.34
2019-04-21T21:14:54.038Z,24.13
2019-04-21T21:20:16.362Z,23.98
2019-04-21T21:22:43.927Z,23.91
2019-04-21T21:25:36.626Z,23.83
2019-04-21T21:27:55.256Z,23.65
2019-04-21T21:30:34.809Z,23.69
2019-04-21T21:33:17.149Z,23.72
2019-04-21T21:35:41.507Z,24.00
2019-04-21T21:38:28.219Z,24.11
2019-04-21T21:40:57.370Z,23.87
2019-04-21T21:43:24.798Z,23.75
2019-04-21T21:46:02.650Z,23.66
2019-04-21T21:48:48.945Z,23.58
2019-04-21T21:51:19.188Z,23.56
2019-04-21T21:53:45.969Z,23.49
2019-04-21T21:56:20.607Z,23.45
2019-04-21T21:58:56.965Z,23.45
2019-04-21T22:01:38.009Z,23.58
2019-04-21T22:04:13.295Z,23.87
2019-04-21T22:06:50.692Z,23.71
2019-04-21T22:09:19.868Z,23.57
2019-04-21T22:11:57.841Z,23.45
2019-04-21T22:14:37.189Z,23.38
2019-04-21T22:17:21.417Z,23.38
2019-04-21T22:20:05.320Z,23.39
2019-04-21T22:22:32.469Z,23.38
2019-04-21T22:25:04.539Z,23.57
2019-04-21T22:27:30.798Z,23.65
2019-04-21T22:30:09.002Z,23.43
2019-04-21T22:32:50.276Z,23.40
2019-04-21T22:35:27.307Z,23.42
2019-04-21T22:38:10.192Z,23.45
2019-04-21T22:40:46.616Z,23.47
2019-04-21T22:43:19.814Z,23.46
2019-04-21T22:45:45.229Z,23.46
2019-04-21T22:48:22.783Z,23.71
2019-04-21T22:50:56.207Z,23.63
2019-04-21T22:53:37.440Z,23.43
2019-04-21T22:56:14.939Z,23.22
2019-04-21T22:58:44.455Z,23.10
2019-04-21T23:01:26.751Z,23.05
2019-04-21T23:03:59.242Z,23.04
2019-04-21T23:06:34.360Z,23.02
2019-04-21T23:09:11.059Z,23.00
2019-04-21T23:11:49.187Z,22.95
2019-04-21T23:14:21.570Z,22.95
2019-04-21T23:17:14.935Z,22.89
2019-04-21T23:19:46.043Z,22.85
2019-04-21T23:22:31.276Z,23.02
2019-04-21T23:25:09.441Z,23.29
2019-04-21T23:27:38.744Z,22.99
2019-04-21T23:30:25.833Z,22.87
2019-04-21T23:32:47.880Z,22.83
2019-04-21T23:35:19.637Z,22.81
2019-04-21T23:37:55.694Z,22.75
2019-04-21T23:40:27.848Z,22.73
2019-04-21T23:43:09.699Z,22.69
2019-04-21T23:45:40.900Z,23.01
2019-04-21T23:48:27.137Z,23.05
2019-04-21T23:50:55.089Z,22.88
2019-04-21T23:53:23.981Z,22.77
2019-04-21T23:55:59.212Z,22.69
2019-04-21T23:58:36.250Z,22.85
